Startpagina
METAR-TAF:

METAR-TAF

Vliegvelden :

Internationale luchthaven van Bahrein

Bahrein, Bahrein

breedte: 26-16N, lengte: 050-39E, hoogte: 2 m

Actueel weer

Dit bericht is 22 minuten geleden gemaakt, om 21:00 UTC
Wind 6 kt uit het noordnoordwesten
Temperatuur 34°C
Vochtigheid 56%
Druk 996 hPa
Zicht 10 km of meer
geen wolken onder 1500 m en geen cumulonimbus

METAR: OBBI 212100Z 34006KT CAVOK 34/24 Q0996 NOSIG

Tijdstip: 00:22 (21:22 UTC)

Verwachting

Dit bericht is 4 uur en het 22 minuten geleden gemaakt, om 17:00 UTC
Verwachting geldig van 21 om 18 UTC tot 23 om 00 UTC
Wind 10 kt uit het noordwesten
Zicht 10 km of meer
geen wolken onder 1500 m en geen cumulonimbus
Kans 30% :
Tijdelijke
van 21 om 23 UTC tot 22 om 06 UTC
Zicht: 3000 m
verspreid stof
Wijzigt naar
van 22 om 04 UTC tot 22 om 06 UTC
Wind 18 kt uit het noordnoordwesten met uitschieters tot 28 kt

TAF: OBBI 211700Z 2118/2300 32010KT CAVOK PROB30 TEMPO 2123/2206 3000 DU BECMG 2204/2206 33018G28KT

Waarnemingen en weersverwachtingen van meer dan 4000 vliegvelden (METAR en TAF).

De beschikbare stations zijn de gele en rode punten op de kaart.

Ga met uw muis naar het station om de naam te zien.

Klik dan om waarnemingen en weersverwachtingen te zien.

kaart wijzigen: klik op de groene knoppen met een zwart kruis om in te zoomen, op de groene knop met een streepje om uit te zoomen of op de groene pijlen voor aangrenzende kaarten.


METAR-TAF: